Time;durP1;ratioP1;P1;durP2;ratioP2;P2;SDS_P1;SDS_P2;PMS_P1;PMS_P2;Temp;Humidity;BMP_temperature;BMP_pressure;BME280_temperature;BME280_humidity;BME280_pressure;Samples;Min_cycle;Max_cycle;Signal;HPM_P1;HPM_P2
2023/04/25 05:46:39;;;;;;;;;3.50;3.50;;;;;17.87;46.27;101002.34;5101565;27;46104;-72
2023/04/25 05:49:04;;;;;;;;;3.75;3.75;;;;;18.44;47.40;100999.53;5057635;28;45892;-72
2023/04/25 05:51:31;;;;;;;;;2.25;2.25;;;;;19.25;47.60;101005.34;5056137;27;45487;-72
2023/04/25 05:53:56;;;;;;;;;3.00;3.00;;;;;20.16;47.88;101014.47;5048358;28;47166;-72
2023/04/25 05:56:21;;;;;;;;;2.00;2.00;;;;;20.99;47.29;101019.47;5047952;28;58488;-72
2023/04/25 05:58:47;;;;;;;;;2.33;2.33;;;;;21.74;46.53;101027.78;5048426;28;47494;-72
2023/04/25 06:01:12;;;;;;;;;3.00;2.00;;;;;22.39;45.99;101018.69;5050497;28;50371;-73
2023/04/25 06:03:38;;;;;;;;;5.33;4.33;;;;;22.96;45.85;101022.91;5054155;28;45535;-74
2023/04/25 06:06:03;;;;;;;;;5.33;3.67;;;;;23.47;45.00;101032.25;5060167;28;46000;-74
2023/04/25 06:08:28;;;;;;;;;6.00;3.00;;;;;23.90;44.96;101024.09;5060416;27;45702;-75
2023/04/25 06:10:54;;;;;;;;;5.33;4.00;;;;;24.28;44.34;101038.13;5064116;28;45368;-73
2023/04/25 06:13:19;;;;;;;;;2.00;2.00;;;;;24.63;43.94;101035.31;5065390;28;45485;-74
2023/04/25 06:15:44;;;;;;;;;2.00;2.00;;;;;24.91;43.29;101029.56;5063164;28;55944;-74
2023/04/25 06:18:10;;;;;;;;;3.00;3.00;;;;;25.15;42.91;101033.28;5067800;27;45461;-72
2023/04/25 06:20:35;;;;;;;;;3.00;3.00;;;;;25.32;42.56;101035.94;5060705;28;45581;-74
2023/04/25 06:23:01;;;;;;;;;3.00;3.00;;;;;25.50;41.95;101033.03;5050156;28;47060;-74
2023/04/25 06:25:26;;;;;;;;;2.00;2.00;;;;;25.64;41.59;101028.75;5051927;27;46981;-75
2023/04/25 06:27:51;;;;;;;;;5.00;4.33;;;;;25.76;41.45;101030.03;5066601;27;45953;-75
2023/04/25 06:30:22;;;;;;;;;5.00;3.00;;;;;25.89;41.08;101031.34;5065836;27;45402;-72
2023/04/25 06:32:47;;;;;;;;;5.00;3.67;;;;;25.99;40.94;101029.25;5062914;27;45477;-72
2023/04/25 06:35:13;;;;;;;;;3.00;2.00;;;;;26.11;41.16;101037.88;5061825;28;46187;-71
2023/04/25 06:37:38;;;;;;;;;3.67;2.00;;;;;26.21;40.61;101043.09;5060025;27;45392;-71
2023/04/25 06:40:04;;;;;;;;;5.00;5.00;;;;;26.28;40.71;101037.81;5060732;28;45683;-71
2023/04/25 06:42:29;;;;;;;;;4.00;4.00;;;;;26.36;40.05;101031.47;5060550;28;45448;-71
2023/04/25 06:44:55;;;;;;;;;5.00;3.00;;;;;26.41;39.56;101043.47;5060093;27;47186;-72
2023/04/25 06:47:20;;;;;;;;;6.00;2.67;;;;;26.46;39.34;101044.81;5065040;27;45698;-70
2023/04/25 06:49:46;;;;;;;;;4.33;3.67;;;;;26.51;39.53;101045.09;5063700;28;50064;-72
2023/04/25 06:52:11;;;;;;;;;3.67;2.67;;;;;26.53;39.26;101035.72;5058797;27;45711;-74
2023/04/25 06:54:36;;;;;;;;;2.67;2.67;;;;;26.61;39.50;101039.44;5047874;27;46730;-72
2023/04/25 06:57:02;;;;;;;;;1.67;1.67;;;;;26.64;39.11;101039.91;5036665;28;50939;-76
2023/04/25 06:59:27;;;;;;;;;6.00;4.67;;;;;26.69;39.17;101042.09;5033035;28;46017;-70
2023/04/25 07:01:52;;;;;;;;;9.67;6.33;;;;;26.73;38.93;101042.56;5035170;28;45740;-72
2023/04/25 07:04:18;;;;;;;;;4.00;3.00;;;;;26.77;38.34;101050.19;5042551;28;46479;-70
2023/04/25 07:06:43;;;;;;;;;4.00;4.00;;;;;26.82;38.68;101050.47;5031104;28;45696;-69
2023/04/25 07:09:12;;;;;;;;;3.33;2.67;;;;;26.87;38.72;101059.97;5035382;28;45525;-70
2023/04/25 07:11:38;;;;;;;;;6.00;4.00;;;;;26.89;38.38;101057.94;5036323;28;45605;-70
2023/04/25 07:14:03;;;;;;;;;3.00;3.00;;;;;26.90;37.87;101062.34;5031619;28;46559;-71
2023/04/25 07:16:29;;;;;;;;;4.67;4.00;;;;;26.95;37.76;101049.03;5032891;28;46878;-72
2023/04/25 07:18:54;;;;;;;;;8.33;5.33;;;;;26.98;37.77;101062.31;5039320;28;46945;-71
2023/04/25 07:21:19;;;;;;;;;4.00;4.00;;;;;27.02;37.93;101069.06;5031893;28;48921;-71
2023/04/25 07:23:45;;;;;;;;;4.67;4.67;;;;;27.04;37.29;101079.78;5031675;28;46176;-71
2023/04/25 07:26:11;;;;;;;;;4.67;4.67;;;;;27.04;37.38;101079.78;5039005;28;52556;-72
2023/04/25 07:28:36;;;;;;;;;6.67;5.33;;;;;27.02;37.00;101073.69;5041934;28;45460;-71
2023/04/25 07:31:02;;;;;;;;;4.00;3.33;;;;;27.02;36.81;101079.94;5045294;28;45584;-71
2023/04/25 07:33:27;;;;;;;;;4.00;4.00;;;;;27.02;36.68;101073.69;5043825;28;47030;-72
2023/04/25 07:35:53;;;;;;;;;5.00;4.00;;;;;27.00;37.21;101084.75;5047139;28;51352;-71
2023/04/25 07:38:18;;;;;;;;;4.00;4.00;;;;;27.01;37.22;101091.06;5048962;28;45557;-72
2023/04/25 07:40:43;;;;;;;;;6.00;4.00;;;;;26.98;36.91;101092.25;5038413;28;45556;-72
2023/04/25 07:43:09;;;;;;;;;4.67;4.67;;;;;26.98;37.02;101086.81;5052056;28;46866;-72
2023/04/25 07:45:34;;;;;;;;;4.00;3.00;;;;;26.96;36.76;101097.03;5051971;28;45610;-72
2023/04/25 07:47:59;;;;;;;;;4.00;4.00;;;;;26.97;36.80;101109.63;5048705;28;45510;-71
2023/04/25 07:50:25;;;;;;;;;4.33;2.00;;;;;26.95;36.67;101112.56;5046017;28;45544;-70
2023/04/25 07:52:50;;;;;;;;;3.00;3.00;;;;;26.98;36.30;101111.34;5052844;28;58419;-73
2023/04/25 07:55:16;;;;;;;;;4.00;4.00;;;;;27.04;36.61;101113.31;5051234;28;45565;-72
2023/04/25 07:57:41;;;;;;;;;3.00;3.00;;;;;27.12;36.87;101126.00;5052501;28;45466;-71
2023/04/25 08:00:11;;;;;;;;;4.00;4.00;;;;;27.22;36.62;101129.31;5053642;28;45459;-74
2023/04/25 08:02:37;;;;;;;;;3.00;3.00;;;;;27.30;36.30;101138.47;5049791;28;46032;-73
2023/04/25 08:05:02;;;;;;;;;6.33;3.00;;;;;27.41;35.99;101142.59;5051596;28;45586;-72
2023/04/25 08:07:27;;;;;;;;;4.00;4.00;;;;;27.48;36.22;101147.16;5048972;28;45481;-72
2023/04/25 08:09:54;;;;;;;;;2.33;2.33;;;;;27.53;36.53;101156.63;5036537;28;55359;-71
2023/04/25 08:12:19;;;;;;;;;2.67;2.67;;;;;27.57;35.90;101161.53;5053042;28;46109;-72
2023/04/25 08:14:44;;;;;;;;;2.33;2.00;;;;;27.56;36.28;101168.03;5048855;28;45326;-70
2023/04/25 08:17:10;;;;;;;;;4.00;4.00;;;;;27.55;35.87;101173.66;5035315;28;45569;-71
2023/04/25 08:19:35;;;;;;;;;4.00;2.00;;;;;27.54;35.48;101177.44;5044575;28;45523;-73
2023/04/25 08:22:01;;;;;;;;;2.33;2.33;;;;;27.52;36.12;101176.75;5039118;28;46296;-73
2023/04/25 08:24:26;;;;;;;;;5.33;5.33;;;;;27.48;35.46;101179.88;5043321;28;45593;-71
2023/04/25 08:26:51;;;;;;;;;2.00;2.00;;;;;27.47;35.12;101178.16;5040697;28;46862;-73
2023/04/25 08:29:17;;;;;;;;;5.00;3.00;;;;;27.47;35.61;101190.94;5035133;28;46543;-73
2023/04/25 08:31:42;;;;;;;;;4.00;4.00;;;;;27.47;35.06;101197.22;5041100;28;46375;-72
2023/04/25 08:34:08;;;;;;;;;4.00;4.00;;;;;27.47;35.72;101191.78;5040246;28;46182;-71
2023/04/25 08:36:33;;;;;;;;;3.33;3.33;;;;;27.46;34.88;101197.44;5038955;28;45416;-71
2023/04/25 08:38:58;;;;;;;;;3.00;3.00;;;;;27.46;35.31;101201.00;5049837;28;46791;-71
2023/04/25 08:41:26;;;;;;;;;5.33;3.67;;;;;27.42;34.82;101199.66;5046445;28;46169;-69
2023/04/25 08:43:54;;;;;;;;;3.33;2.00;;;;;27.39;34.91;101204.63;5049369;28;45550;-69
2023/04/25 08:46:20;;;;;;;;;2.33;2.33;;;;;27.36;34.69;101197.69;5036223;28;45451;-69
2023/04/25 08:48:45;;;;;;;;;4.00;4.00;;;;;27.34;34.95;101207.94;5049470;28;45490;-70
2023/04/25 08:51:22;;;;;;;;;5.67;5.67;;;;;27.33;35.26;101211.66;5037793;28;46145;-70
2023/04/25 08:53:51;;;;;;;;;10.33;5.33;;;;;27.31;34.94;101224.63;5052016;28;45553;-71
2023/04/25 08:56:17;;;;;;;;;4.33;4.33;;;;;27.32;34.76;101231.78;5048202;28;45423;-70
2023/04/25 08:58:45;;;;;;;;;5.00;5.00;;;;;27.29;35.29;101230.25;5046438;28;45540;-71
2023/04/25 09:01:11;;;;;;;;;6.67;5.33;;;;;27.34;35.12;101246.91;5050349;28;48014;-70
2023/04/25 09:03:37;;;;;;;;;4.00;4.00;;;;;27.34;35.06;101252.38;5039789;28;45645;-71
2023/04/25 09:06:03;;;;;;;;;5.00;5.00;;;;;27.30;34.51;101247.47;5052574;28;45504;-70
2023/04/25 09:08:29;;;;;;;;;10.00;3.67;;;;;27.29;35.14;101238.44;5051201;28;45606;-70
2023/04/25 09:10:54;;;;;;;;;8.00;4.33;;;;;27.30;34.51;101240.13;5052330;28;45440;-70
2023/04/25 09:13:28;;;;;;;;;3.67;3.67;;;;;27.33;34.78;101255.25;5047314;28;45737;-70
2023/04/25 09:15:55;;;;;;;;;7.00;6.00;;;;;27.41;34.16;101265.25;5043443;28;45493;-73
2023/04/25 09:18:29;;;;;;;;;6.33;5.00;;;;;27.33;34.91;101249.81;5037213;28;47187;-73
2023/04/25 09:20:57;;;;;;;;;5.00;5.00;;;;;27.31;34.52;101251.88;5040627;28;46338;-73
2023/04/25 09:23:23;;;;;;;;;5.00;4.00;;;;;27.38;34.75;101277.38;5045522;28;45536;-76
2023/04/25 09:25:51;;;;;;;;;4.00;4.00;;;;;27.39;34.20;101270.91;5040365;28;45506;-75
2023/04/25 09:28:23;;;;;;;;;2.67;2.67;;;;;27.41;34.59;101282.47;5049774;28;45543;-74
2023/04/25 09:30:48;;;;;;;;;4.33;3.33;;;;;27.42;34.14;101284.16;5044279;28;45813;-74
2023/04/25 09:33:13;;;;;;;;;3.00;3.00;;;;;27.43;34.71;101276.84;5050739;28;50231;-74
2023/04/25 09:35:41;;;;;;;;;3.67;3.00;;;;;27.47;34.20;101286.34;5046976;28;45467;-73
2023/04/25 09:38:12;;;;;;;;;5.00;3.00;;;;;27.49;34.84;101282.41;5045064;28;45586;-76
2023/04/25 09:40:45;;;;;;;;;2.67;2.67;;;;;27.57;34.69;101280.63;5048214;28;46082;-76
2023/04/25 09:43:21;;;;;;;;;4.00;2.50;;;;;27.64;34.17;101298.00;5049723;28;45322;-78
2023/04/25 09:45:47;;;;;;;;;4.33;3.00;;;;;27.71;34.29;101290.78;5049405;28;45450;-79
2023/04/25 09:48:18;;;;;;;;;3.67;3.67;;;;;27.80;34.51;101290.72;5051044;28;45895;-79
2023/04/25 09:50:44;;;;;;;;;3.00;3.00;;;;;27.88;34.27;101294.19;5049148;28;46076;-79
2023/04/25 09:53:09;;;;;;;;;5.00;3.67;;;;;27.97;34.37;101292.25;5042455;28;45377;-74
2023/04/25 09:55:36;;;;;;;;;4.33;3.00;;;;;28.05;34.72;101295.91;5050732;28;45311;-76
2023/04/25 09:58:06;;;;;;;;;4.00;4.00;;;;;28.11;34.54;101298.75;5051623;28;45491;-77
2023/04/25 10:00:33;;;;;;;;;3.33;3.33;;;;;28.19;34.12;101306.00;5049586;28;45574;-76
2023/04/25 10:03:03;;;;;;;;;3.33;3.33;;;;;28.23;34.08;101306.47;5042228;28;45471;-77
2023/04/25 10:05:31;;;;;;;;;3.33;3.00;;;;;28.28;34.67;101315.84;5050661;28;45336;-76
2023/04/25 10:07:58;;;;;;;;;4.33;4.33;;;;;28.31;34.13;101297.41;5047179;28;45685;-76
2023/04/25 10:10:27;;;;;;;;;3.33;3.33;;;;;28.35;34.11;101306.88;5050340;28;45434;-76
2023/04/25 10:12:53;;;;;;;;;5.00;4.00;;;;;28.38;34.45;101315.56;5049395;28;45565;-76
2023/04/25 10:15:19;;;;;;;;;3.33;3.33;;;;;28.41;33.75;101315.19;5037455;28;45465;-76
2023/04/25 10:17:45;;;;;;;;;3.33;3.33;;;;;28.41;34.17;101306.16;5045843;28;45403;-76
2023/04/25 10:20:11;;;;;;;;;4.00;4.00;;;;;28.44;34.03;101316.69;5043301;28;46234;-76
2023/04/25 10:22:43;;;;;;;;;5.67;4.00;;;;;28.45;34.12;101314.81;5037566;28;46137;-81
2023/04/25 10:25:10;;;;;;;;;3.67;3.33;;;;;28.41;34.23;101315.19;5039784;28;45654;-86
2023/04/25 10:27:35;;;;;;;;;4.00;4.00;;;;;28.41;34.30;101312.44;5043459;28;46141;-80
2023/04/25 10:30:09;;;;;;;;;5.00;3.67;;;;;28.41;34.51;101317.91;5051173;28;45405;-78
2023/04/25 10:32:35;;;;;;;;;3.00;3.00;;;;;28.41;33.70;101317.91;5041659;28;45428;-79
2023/04/25 10:35:19;;;;;;;;;2.67;2.00;;;;;28.40;34.18;101329.88;5053765;28;45623;-82
2023/04/25 10:37:59;;;;;;;;;3.33;3.33;;;;;28.38;34.28;101325.63;5052879;28;45569;-78
2023/04/25 10:40:25;;;;;;;;;6.00;4.00;;;;;28.36;34.04;101331.28;5052306;28;46501;-79
2023/04/25 10:42:56;;;;;;;;;2.00;2.00;;;;;28.36;34.29;101328.53;5053107;28;45483;-81
2023/04/25 10:45:22;;;;;;;;;4.67;3.67;;;;;28.38;34.22;101342.00;5043976;28;45404;-81
2023/04/25 10:47:48;;;;;;;;;3.67;3.00;;;;;28.43;33.87;101339.56;5042270;28;45474;-86
2023/04/25 10:50:16;;;;;;;;;3.67;3.00;;;;;28.51;34.23;101334.03;5045819;28;46342;-81
2023/04/25 10:52:42;;;;;;;;;4.00;3.00;;;;;28.56;34.25;101335.34;5053186;28;46253;-81
2023/04/25 10:55:08;;;;;;;;;4.00;4.00;;;;;28.63;33.93;101341.72;5051820;28;45462;-80
2023/04/25 10:57:46;;;;;;;;;3.67;3.00;;;;;28.70;34.30;101336.34;5051593;28;45854;-79
2023/04/25 11:00:19;;;;;;;;;2.33;2.00;;;;;28.76;34.30;101341.06;5050932;28;45492;-79
2023/04/25 11:02:52;;;;;;;;;2.00;2.00;;;;;28.79;34.42;101336.09;5051445;28;45755;-80
2023/04/25 11:05:36;;;;;;;;;2.00;2.00;;;;;28.82;34.03;101340.31;5054290;28;45566;-82
2023/04/25 11:08:03;;;;;;;;;3.00;2.00;;;;;28.85;33.72;101336.34;5035587;28;45401;-81
2023/04/25 11:10:35;;;;;;;;;3.67;3.67;;;;;28.87;33.88;101337.00;5061889;28;46282;-80
2023/04/25 11:13:01;;;;;;;;;4.33;3.00;;;;;28.89;34.14;101346.72;5050422;28;46407;-82
2023/04/25 11:15:27;;;;;;;;;3.00;3.00;;;;;28.91;34.21;101341.09;5045351;28;45486;-80
2023/04/25 11:17:53;;;;;;;;;2.00;2.00;;;;;28.89;34.21;101335.81;5053236;28;45622;-81
2023/04/25 11:20:19;;;;;;;;;2.00;2.00;;;;;28.91;33.85;101341.09;5046292;28;46212;-79
2023/04/25 11:22:45;;;;;;;;;2.00;2.00;;;;;28.89;33.63;101343.16;5051495;28;45574;-81
2023/04/25 11:25:13;;;;;;;;;2.67;2.67;;;;;28.90;33.54;101342.13;5046925;28;45701;-81
2023/04/25 11:27:59;;;;;;;;;2.67;2.67;;;;;28.89;34.01;101335.81;5052738;28;45384;-79
2023/04/25 11:30:26;;;;;;;;;2.33;2.33;;;;;28.89;33.56;101345.91;5053136;28;46150;-84
2023/04/25 11:32:52;;;;;;;;;3.33;2.67;;;;;28.87;33.88;101337.84;5052131;28;45608;-80
2023/04/25 11:35:22;;;;;;;;;3.00;3.00;;;;;28.87;33.65;101347.94;5043135;28;45446;-75
2023/04/25 11:37:49;;;;;;;;;4.00;4.00;;;;;28.85;33.48;101341.81;5044307;28;45511;-81
2023/04/25 11:40:15;;;;;;;;;3.33;2.00;;;;;28.78;33.21;101344.47;5043764;28;45995;-81
2023/04/25 11:42:45;;;;;;;;;3.00;2.00;;;;;28.72;33.66;101347.97;5048996;28;45794;-81
2023/04/25 11:45:11;;;;;;;;;4.00;2.67;;;;;28.72;33.10;101345.22;5045783;28;45515;-80
2023/04/25 11:47:37;;;;;;;;;2.67;2.00;;;;;28.76;33.16;101343.78;5049574;28;45448;-79
2023/04/25 11:50:05;;;;;;;;;3.00;3.00;;;;;28.77;33.24;101349.06;5052224;28;46060;-79
2023/04/25 11:52:42;;;;;;;;;3.00;3.00;;;;;28.82;33.42;101343.03;5052343;28;45396;-79
2023/04/25 11:55:18;;;;;;;;;3.33;3.33;;;;;28.85;32.82;101339.09;5046121;28;45716;-79
2023/04/25 11:57:46;;;;;;;;;3.00;3.00;;;;;28.91;32.86;101346.53;5047217;28;45545;-77
2023/04/25 12:00:17;;;;;;;;;3.00;3.00;;;;;28.94;33.03;101348.91;5053225;28;47051;-78
2023/04/25 12:02:43;;;;;;;;;2.33;2.33;;;;;28.96;33.38;101340.50;5050305;28;45498;-77
2023/04/25 12:05:12;;;;;;;;;2.67;2.67;;;;;28.97;32.85;101339.47;5053333;28;45534;-77
2023/04/25 12:07:38;;;;;;;;;1.00;1.00;;;;;28.97;33.33;101334.84;5050028;28;45789;-78
2023/04/25 12:10:12;;;;;;;;;1.67;1.67;;;;;29.00;33.55;101350.88;5049829;28;46983;-77
2023/04/25 12:12:40;;;;;;;;;2.00;2.00;;;;;29.02;33.29;101345.22;5047756;28;46089;-82
2023/04/25 12:15:25;;;;;;;;;3.33;3.33;;;;;29.02;33.43;101347.94;5048298;28;45536;-83
2023/04/25 12:17:52;;;;;;;;;1.00;1.00;;;;;29.02;33.15;101345.22;5035159;28;45565;-79
2023/04/25 12:20:20;;;;;;;;;2.00;2.00;;;;;29.03;33.06;101347.75;5044404;28;45939;-76
2023/04/25 12:22:47;;;;;;;;;4.33;2.00;;;;;29.04;32.81;101348.59;5040669;28;45398;-77
2023/04/25 12:25:13;;;;;;;;;3.00;2.00;;;;;29.05;33.10;101345.66;5034986;28;45762;-79
2023/04/25 12:27:43;;;;;;;;;3.00;3.00;;;;;29.06;32.95;101349.25;5037452;28;45622;-79
2023/04/25 12:30:10;;;;;;;;;2.00;2.00;;;;;29.08;33.07;101349.03;5042482;28;45692;-80
2023/04/25 12:32:36;;;;;;;;;3.00;2.00;;;;;29.09;33.29;101348.84;5051672;28;45498;-80
2023/04/25 12:35:01;;;;;;;;;2.33;2.33;;;;;29.08;33.07;101351.78;5048162;28;45561;-80
2023/04/25 12:37:28;;;;;;;;;3.00;3.00;;;;;29.10;33.41;101361.47;5046253;28;45935;-80
2023/04/25 12:39:53;;;;;;;;;3.00;3.00;;;;;29.12;32.96;101361.28;5050966;28;45596;-80
2023/04/25 12:42:18;;;;;;;;;3.00;3.00;;;;;29.12;33.47;101364.88;5051270;28;46308;-82
2023/04/25 12:44:44;;;;;;;;;3.00;3.00;;;;;29.13;32.94;101365.72;5050050;28;45510;-81
2023/04/25 12:47:10;;;;;;;;;3.33;1.67;;;;;29.12;32.80;101359.41;5039385;28;45426;-82
2023/04/25 12:49:35;;;;;;;;;4.00;4.00;;;;;29.11;33.14;101355.00;5052046;28;46944;-80
2023/04/25 12:52:00;;;;;;;;;2.00;2.00;;;;;29.12;32.59;101361.28;5046597;28;45557;-78
2023/04/25 12:54:26;;;;;;;;;2.00;2.00;;;;;29.08;33.07;101355.38;5046899;28;56564;-79
2023/04/25 12:56:52;;;;;;;;;2.00;2.00;;;;;29.07;33.29;101356.41;5049268;28;45661;-87
2023/04/25 12:59:18;;;;;;;;;3.67;3.00;;;;;29.08;33.03;101359.97;5031092;28;47102;-80
2023/04/25 13:01:45;;;;;;;;;3.00;3.00;;;;;29.08;33.24;101355.38;5049624;28;45451;-81
2023/04/25 13:04:10;;;;;;;;;4.00;2.33;;;;;29.10;33.15;101361.47;5049875;28;46061;-80
2023/04/25 13:06:35;;;;;;;;;2.33;2.33;;;;;29.11;33.46;101367.81;5049845;28;45624;-78
2023/04/25 13:09:01;;;;;;;;;0.67;0.67;;;;;29.09;33.08;101370.72;5050296;28;46529;-79
2023/04/25 13:11:26;;;;;;;;;2.33;2.00;;;;;29.09;33.58;101370.72;5042599;28;45328;-82
2023/04/25 13:13:52;;;;;;;;;1.00;1.00;;;;;29.08;32.99;101369.03;5044653;28;45627;-80
2023/04/25 13:16:20;;;;;;;;;2.00;2.00;;;;;29.07;33.39;101367.34;5049897;28;45623;-80
2023/04/25 13:18:45;;;;;;;;;2.33;2.33;;;;;29.06;33.13;101362.94;5051506;28;45437;-77
2023/04/25 13:21:11;;;;;;;;;2.33;2.33;;;;;29.02;32.77;101365.16;5051232;28;46369;-79
2023/04/25 13:23:36;;;;;;;;;2.67;2.67;;;;;29.05;33.04;101372.13;5042758;28;45461;-80
2023/04/25 13:26:02;;;;;;;;;4.00;3.00;;;;;29.03;32.74;101375.09;5039949;28;46010;-77
2023/04/25 13:28:28;;;;;;;;;2.00;2.00;;;;;29.00;32.96;101372.72;5048664;28;45671;-76
2023/04/25 13:30:53;;;;;;;;;1.67;1.00;;;;;29.02;33.18;101380.75;5043598;28;45867;-77
2023/04/25 13:33:20;;;;;;;;;2.00;2.00;;;;;28.99;32.96;101375.63;5051432;28;45482;-78
2023/04/25 13:35:56;;;;;;;;;2.00;2.00;;;;;28.99;32.89;101384.69;5051075;28;45742;-79
2023/04/25 13:38:23;;;;;;;;;2.00;2.00;;;;;28.95;33.15;101383.38;5044117;28;46046;-85
2023/04/25 13:40:50;;;;;;;;;2.00;2.00;;;;;28.93;32.99;101382.72;5043066;28;45652;-83
2023/04/25 13:43:15;;;;;;;;;2.00;2.00;;;;;28.92;32.99;101378.28;5041918;28;45486;-80
2023/04/25 13:45:41;;;;;;;;;2.00;2.00;;;;;28.93;32.85;101382.72;5049046;28;45502;-79
2023/04/25 13:48:06;;;;;;;;;1.67;1.67;;;;;28.94;33.27;101389.88;5046822;28;45508;-81
2023/04/25 13:50:31;;;;;;;;;3.00;3.00;;;;;28.97;33.10;101385.94;5032737;28;45941;-82
2023/04/25 13:52:57;;;;;;;;;2.67;2.00;;;;;28.97;32.78;101385.94;5032142;28;48179;-81
2023/04/25 13:55:22;;;;;;;;;2.67;2.67;;;;;28.97;32.93;101380.47;5032348;28;45522;-83
2023/04/25 13:57:47;;;;;;;;;2.00;2.00;;;;;29.03;33.00;101390.63;5032302;28;46380;-77
2023/04/25 15:30:53;;;;;;;;;5.00;5.00;;;;;19.77;38.26;101389.59;5074861;27;45742;-79
2023/04/25 15:33:19;;;;;;;;;2.00;2.00;;;;;20.27;38.81;101395.28;5055314;28;45638;-80
2023/04/25 15:35:44;;;;;;;;;5.67;4.00;;;;;21.06;38.95;101389.50;5062582;28;45513;-76
2023/04/25 15:38:10;;;;;;;;;6.00;3.00;;;;;21.86;39.45;101385.97;5059635;28;45515;-75
2023/04/25 15:40:36;;;;;;;;;5.00;4.00;;;;;22.61;38.79;101396.16;5063820;28;46961;-74
2023/04/25 15:43:01;;;;;;;;;2.67;2.67;;;;;23.27;38.59;101392.63;5064558;28;45411;-76
2023/04/25 15:45:27;;;;;;;;;2.00;2.00;;;;;23.85;38.47;101390.56;5061789;28;45459;-74
2023/04/25 15:47:54;;;;;;;;;3.33;3.33;;;;;24.34;37.54;101395.56;5061597;28;45428;-75
2023/04/25 15:50:20;;;;;;;;;4.00;3.67;;;;;24.80;37.43;101389.06;5060859;28;45364;-76
2023/04/25 15:52:48;;;;;;;;;3.33;3.33;;;;;25.16;37.20;101385.34;5046247;28;45517;-76
2023/04/25 15:55:14;;;;;;;;;5.00;4.00;;;;;25.48;36.64;101385.59;5039925;28;46255;-75
2023/04/25 15:57:40;;;;;;;;;2.67;2.67;;;;;25.75;36.64;101387.22;5038900;28;45812;-76
2023/04/25 16:00:11;;;;;;;;;4.33;4.33;;;;;25.98;36.14;101386.56;5041551;28;47089;-75
2023/04/25 16:02:38;;;;;;;;;5.00;4.00;;;;;26.22;35.84;101384.84;5040737;27;46048;-76
2023/04/25 16:05:03;;;;;;;;;4.33;3.67;;;;;26.41;35.59;101375.50;5042192;28;45541;-75
2023/04/25 16:07:29;;;;;;;;;2.00;2.00;;;;;26.59;35.11;101388.06;5041335;28;45761;-76
2023/04/25 16:09:54;;;;;;;;;2.00;2.00;;;;;26.74;35.32;101385.47;5049879;28;46047;-75
2023/04/25 16:12:19;;;;;;;;;3.67;3.67;;;;;26.87;35.07;101392.22;5049285;28;45560;-76
2023/04/25 16:14:45;;;;;;;;;4.33;4.33;;;;;26.97;34.68;101392.88;5050706;28;45645;-76
2023/04/25 16:17:10;;;;;;;;;3.67;3.67;;;;;27.05;34.35;101390.13;5041387;28;57133;-77
2023/04/25 16:19:36;;;;;;;;;6.00;3.00;;;;;27.17;34.82;101387.00;5046205;28;47378;-82
2023/04/25 16:22:01;;;;;;;;;3.00;3.00;;;;;27.25;34.37;101395.16;5042905;28;45581;-77
2023/04/25 16:24:27;;;;;;;;;5.33;5.00;;;;;27.30;34.69;101392.75;5039076;27;46072;-77
2023/04/25 16:26:52;;;;;;;;;2.00;2.00;;;;;27.36;33.95;101393.91;5040755;28;45559;-76
2023/04/25 16:29:17;;;;;;;;;2.33;2.33;;;;;27.43;33.77;101392.16;5039887;28;54794;-78
2023/04/25 16:31:43;;;;;;;;;2.00;2.00;;;;;27.47;33.91;101392.66;5039587;28;54361;-78
2023/04/25 16:34:08;;;;;;;;;2.00;2.00;;;;;27.51;33.65;101399.47;5043370;28;45492;-80
2023/04/25 16:36:34;;;;;;;;;4.00;4.00;;;;;27.55;33.74;101399.94;5058431;28;45312;-81
2023/04/25 16:39:00;;;;;;;;;3.00;2.33;;;;;27.59;34.04;101393.94;5060729;28;46300;-82
2023/04/25 16:41:28;;;;;;;;;3.33;3.33;;;;;27.70;33.60;101395.44;5055408;28;45502;-83
2023/04/25 16:43:54;;;;;;;;;2.00;2.00;;;;;27.81;34.14;101405.09;5051116;28;45668;-81
2023/04/25 16:46:22;;;;;;;;;1.33;1.33;;;;;27.92;34.12;101395.63;5044748;28;45674;-80
2023/04/25 16:48:47;;;;;;;;;3.00;3.00;;;;;28.01;33.98;101388.22;5047585;28;46129;-78
2023/04/25 16:51:14;;;;;;;;;4.00;2.67;;;;;28.10;33.55;101398.03;5044590;28;52039;-80
2023/04/25 16:53:40;;;;;;;;;10.00;5.00;;;;;28.17;33.20;101392.69;5036193;28;45574;-81
2023/04/25 16:56:06;;;;;;;;;6.67;3.67;;;;;28.23;33.28;101389.22;5033712;28;45462;-78
2023/04/25 16:58:31;;;;;;;;;4.33;3.67;;;;;28.27;33.42;101382.38;5035387;28;47037;-79
2023/04/25 17:00:57;;;;;;;;;3.33;3.33;;;;;28.33;33.55;101385.41;5040543;28;45497;-79
2023/04/25 17:03:22;;;;;;;;;3.00;2.33;;;;;28.38;32.94;101378.34;5049718;28;45528;-81
2023/04/25 17:05:55;;;;;;;;;5.00;5.00;;;;;28.42;33.69;101381.56;5048513;28;53798;-80
2023/04/25 17:08:21;;;;;;;;;2.00;2.00;;;;;28.47;32.81;101378.25;5034218;28;45521;-79
2023/04/25 17:10:46;;;;;;;;;5.33;4.00;;;;;28.50;33.14;101380.63;5036262;28;45430;-79
2023/04/25 17:13:12;;;;;;;;;3.33;3.33;;;;;28.54;33.08;101377.31;5039479;28;45689;-76
2023/04/25 17:15:37;;;;;;;;;4.67;3.00;;;;;28.58;32.45;101383.28;5047239;28;45448;-77
2023/04/25 17:18:02;;;;;;;;;4.00;3.67;;;;;28.57;32.26;101378.81;5049642;28;66850;-77
2023/04/25 17:20:28;;;;;;;;;3.33;3.33;;;;;28.51;32.38;101374.97;5047574;28;45455;-79
2023/04/25 17:22:53;;;;;;;;;4.00;3.67;;;;;28.45;32.92;101380.34;5041928;28;45407;-79
2023/04/25 17:25:18;;;;;;;;;3.00;3.00;;;;;28.38;32.73;101377.50;5040438;28;45525;-76
2023/04/25 17:27:44;;;;;;;;;3.00;3.00;;;;;28.32;32.64;101376.34;5040402;28;45549;-80
2023/04/25 17:30:09;;;;;;;;;5.67;3.00;;;;;28.30;32.07;101380.31;5042815;28;45445;-78
